EW0767 Weather Reports


Display with metric or nautical units.
time (UTC)temp
F
wind
direction
speed
MPH
gust
MPH
rain 1hr
in
rain 24hr
in
rain mn
in
humidity
%
barometer
mb
20210726000102 74 242 0.0 0.0 0.00 0.10 0.10 91 1011.8
20210725235055 75 148 0.0 0.0 0.00 0.10 0.10 90 1011.7
20210725234300 75 197 0.0 0.0 0.00 0.10 0.10 89 1011.5
20210725233057 76 203 0.0 0.0 0.00 0.10 0.10 88 1011.3
20210725232055 76 164 0.0 0.0 0.00 0.10 0.10 87 1011.1
20210725231257 76 200 0.0 0.0 0.00 0.10 0.10 86 1011.0
20210725230101 76 235 0.0 1.0 0.00 0.10 0.10 86 1011.0
20210725225052 77 195 0.0 1.0 0.00 0.10 0.10 85 1011.2
20210725224257 77 238 1.0 2.0 0.00 0.10 0.10 85 1011.2
20210725223055 77 318 0.0 0.0 0.00 0.10 0.10 85 1011.2
20210725222053 77 250 0.0 1.0 0.00 0.10 0.10 83 1011.2
20210725221304 78 155 1.0 2.0 0.00 0.10 0.10 82 1011.2
20210725220101 79 203 0.0 0.0 0.00 0.10 0.10 80 1011.2
20210725215053 79 321 0.0 0.0 0.00 0.10 0.10 81 1011.4
20210725214258 79 195 0.0 2.0 0.00 0.10 0.10 82 1011.4
20210725213101 78 162 1.0 3.0 0.00 0.10 0.10 81 1011.4
20210725212659 78 302 2.0 3.0 0.00 0.10 0.10 81 1011.6
20210725211306 78 315 0.0 1.0 0.00 0.10 0.10 81 1011.7
20210725210102 78 285 0.0 1.0 0.00 0.10 0.10 82 1011.7
20210725205054 78 284 1.0 3.0 0.00 0.10 0.10 79 1011.7
20210725204259 78 290 0.0 1.0 0.00 0.10 0.10 82 1011.9
20210725203103 78 212 2.0 5.0 0.00 0.10 0.10 82 1012.1
20210725202053 78 155 2.0 5.0 0.00 0.10 0.10 82 1012.1
20210725201257 77 193 3.0 4.0 0.00 0.10 0.10 83 1012.1
20210725200107 75 245 1.0 2.0 0.00 0.10 0.10 86 1012.2
20210725195053 74 198 3.0 5.0 0.00 0.10 0.10 86 1012.3
20210725194257 73 218 4.0 7.0 0.00 0.10 0.10 88 1012.3
20210725193102 73 300 2.0 3.0 0.00 0.10 0.10 89 1012.5
20210725192055 73 288 2.0 5.0 0.00 0.10 0.10 91 1012.6
20210725191259 72 210 2.0 5.0 0.00 0.10 0.10 90 1012.6
20210725190057 71 203 1.0 3.0 0.00 0.10 0.10 92 1012.6
20210725185055 71 249 3.0 5.0 0.00 0.10 0.10 92 1012.8
20210725184259 71 99 0.0 0.0 0.00 0.10 0.10 93 1012.9
20210725183102 70 228 0.0 1.0 0.00 0.10 0.10 93 1013.0
20210725182054 70 311 1.0 3.0 0.00 0.10 0.10 93 1013.0
20210725181257 70 123 0.0 0.0 0.00 0.10 0.10 93 1013.1
20210725180102 70 245 0.0 1.0 0.00 0.10 0.10 93 1013.1
20210725175054 70 169 0.0 2.0 0.00 0.10 0.10 93 1013.2
20210725174258 70 360 0.0 1.0 0.00 0.10 0.10 93 1013.2
20210725173056 70 222 1.0 4.0 0.00 0.10 0.10 92 1013.2
20210725172055 70 192 3.0 5.0 0.00 0.10 0.10 92 1013.2
20210725171259 70 291 1.0 2.0 0.00 0.10 0.10 94 1013.2
20210725170057 69 132 1.0 3.0 0.00 0.10 0.10 94 1013.2
20210725165049 68 186 2.0 6.0 0.00 0.10 0.10 95 1013.4
20210725164300 68 238 2.0 4.0 0.00 0.10 0.10 95 1013.5
20210725163058 67 248 1.0 4.0 0.00 0.10 0.10 95 1013.7
20210725162120 68 228 3.0 8.0 0.00 0.10 0.10 95 1013.7
20210725161300 67 204 1.0 3.0 0.00 0.10 0.10 95 1013.8
20210725160058 67 226 0.0 2.0 0.00 0.10 0.10 96 1013.8
20210725155050 66 160 2.0 4.0 0.00 0.10 0.10 97 1013.8
20210725154301 66 225 1.0 3.0 0.00 0.10 0.10 97 1014.0
20210725153058 65 221 2.0 4.0 0.00 0.10 0.10 97 1014.2
20210725152050 65 188 1.0 2.0 0.00 0.10 0.10 97 1014.2
20210725151300 65 142 1.0 2.0 0.00 0.10 0.10 97 1014.3
20210725150058 65 120 2.0 5.0 0.00 0.09 0.09 97 1014.3
20210725145055 65 226 1.0 3.0 0.00 0.09 0.09 97 1014.2
20210725144300 65 0 0.0 1.0 0.00 0.09 0.09 97 1014.2
20210725143058 65 281 1.0 3.0 0.00 0.07 0.07 97 1014.3
20210725142050 65 214 2.0 6.0 0.00 0.07 0.07 97 1014.2
20210725141259 65 167 0.0 2.0 0.00 0.07 0.07 97 1014.2
20210725140102 65 259 2.0 5.0 0.00 0.07 0.07 96 1014.0
20210725135052 65 262 0.0 0.0 0.00 0.07 0.07 96 1014.1
20210725134257 65 203 3.0 9.0 0.00 0.07 0.07 96 1014.1
20210725133101 65 249 3.0 8.0 0.00 0.07 0.07 96 1014.1
20210725132053 65 191 2.0 4.0 0.00 0.07 0.07 97 1014.1
20210725131258 65 221 2.0 6.0 0.00 0.07 0.07 96 1014.1
20210725130056 65 276 3.0 7.0 0.00 0.07 0.07 96 1014.3
20210725125054 65 205 0.0 1.0 0.00 0.07 0.07 96 1014.4
20210725124259 64 317 1.0 2.0 0.00 0.07 0.07 96 1014.3
20210725123056 64 167 1.0 3.0 0.00 0.07 0.07 96 1014.4
20210725122054 64 218 0.0 2.0 0.00 0.07 0.07 96 1014.5
20210725121259 64 210 1.0 2.0 0.00 0.06 0.06 96 1014.5
20210725120056 64 166 0.0 3.0 0.00 0.06 0.06 96 1014.6
20210725115054 64 259 1.0 2.0 0.00 0.06 0.06 96 1014.7
20210725114259 64 0 1.0 2.0 0.00 0.06 0.06 96 1014.8
20210725113056 64 147 1.0 5.0 0.00 0.06 0.06 96 1014.8
20210725112054 64 259 0.0 0.0 0.00 0.06 0.06 95 1014.8
20210725111258 64 278 0.0 1.0 0.00 0.06 0.06 95 1014.8
20210725110102 64 233 0.0 1.0 0.00 0.06 0.06 94 1014.9
20210725105054 64 126 1.0 4.0 0.00 0.06 0.06 94 1015.0
20210725104258 64 253 2.0 4.0 0.00 0.06 0.06 94 1014.9
20210725103057 64 328 0.0 1.0 0.00 0.05 0.05 95 1014.8
20210725102054 64 238 0.0 2.0 0.00 0.05 0.05 95 1014.9
20210725101257 64 148 0.0 0.0 0.00 0.05 0.05 95 1015.0
20210725100055 64 92 0.0 0.0 0.00 0.05 0.05 96 1015.1
20210725095053 64 92 0.0 0.0 0.00 0.05 0.05 96 1015.1
20210725094258 64 350 0.0 0.0 0.00 0.04 0.04 96 1015.1
20210725093056 64 349 0.0 0.0 0.00 0.04 0.04 96 1015.1
20210725092051 64 350 0.0 0.0 0.00 0.04 0.04 96 1015.1
20210725091317 65 350 0.0 0.0 0.00 0.04 0.04 96 1015.1
20210725090121 65 345 0.0 1.0 0.00 0.04 0.04 96 1015.5
20210725085051 65 297 0.0 1.0 0.00 0.04 0.04 96 1015.5
20210725084317 65 232 0.0 1.0 0.00 0.03 0.03 96 1015.7
20210725083121 65 229 0.0 0.0 0.00 0.02 0.02 95 1015.7
20210725082050 65 222 0.0 0.0 0.00 0.00 0.00 95 1015.6
20210725081321 65 259 0.0 0.0 0.00 0.00 0.00 94 1015.6
20210725080119 66 188 0.0 0.0 0.00 0.00 0.00 93 1015.7
20210725075053 66 249 0.0 1.0 0.00 0.00 0.00 92 1015.8
20210725074319 66 0 0.0 0.0 0.00 0.00 0.00 91 1015.7
20210725073118 66 235 0.0 0.0 0.00 0.00 0.00 91 1015.7
20210725072052 66 249 0.0 1.0 0.00 0.00 0.00 91 1015.7
20210725071052 66 235 0.0 0.0 0.00 0.00 0.00 90 1015.9
20210725070117 66 238 0.0 0.0 0.00 0.00 0.00 89 1016.1
20210725065052 66 330 0.0 1.0 0.00 0.00 0.00 88 1016.1
20210725064318 66 300 0.0 1.0 0.00 0.00 0.00 88 1016.0
20210725063118 67 288 0.0 0.0 0.00 0.00 0.00 86 1016.0
20210725062053 67 309 0.0 0.0 0.00 0.00 0.00 86 1016.1
20210725061319 67 232 0.0 1.0 0.00 0.00 0.00 86 1016.2
20210725060117 67 288 1.0 2.0 0.00 0.00 0.00 86 1016.6
20210725055052 67 224 0.0 0.0 0.00 0.00 0.00 85 1016.9
20210725054318 67 266 2.0 4.0 0.00 0.00 0.00 86 1016.9
20210725053117 67 250 0.0 1.0 0.00 0.00 0.00 85 1017.0
20210725052052 67 264 0.0 1.0 0.00 0.00 0.00 85 1017.2
20210725051319 67 226 0.0 0.0 0.00 0.00 0.00 84 1017.2
20210725050118 67 208 0.0 0.0 0.00 0.00 0.00 83 1017.3
20210725045053 67 243 0.0 0.0 0.00 0.00 0.00 83 1017.3
20210725044319 67 176 0.0 1.0 0.00 0.00 0.00 83 1017.2
20210725043119 67 212 1.0 2.0 0.00 0.00 0.00 83 1017.3
20210725042048 67 248 0.0 0.0 0.00 0.00 0.00 82 1017.2
20210725041319 67 217 0.0 1.0 0.00 0.00 0.00 83 1017.2
20210725040117 67 264 0.0 0.0 0.00 0.00 0.00 82 1017.1
20210725035052 67 243 0.0 0.0 0.00 0.00 0.00 82 1017.3
20210725034318 67 232 0.0 1.0 0.00 0.00 0.00 82 1017.2
20210725033118 67 235 1.0 3.0 0.00 0.00 0.00 81 1017.3
20210725032053 67 221 2.0 3.0 0.00 0.00 0.00 81 1017.3
20210725031318 68 221 0.0 0.0 0.00 0.00 0.00 81 1017.4
20210725030116 68 149 0.0 1.0 0.00 0.00 0.00 81 1017.6
20210725025051 68 207 1.0 2.0 0.00 0.00 0.00 80 1017.9
20210725024318 68 312 0.0 2.0 0.00 0.00 0.00 80 1017.9
20210725023116 68 161 1.0 4.0 0.00 0.00 0.00 79 1018.0
20210725022052 68 162 1.0 4.0 0.00 0.00 0.00 79 1018.1
20210725021318 68 228 0.0 1.0 0.00 0.00 0.00 79 1018.3
20210725020056 68 221 0.0 0.0 0.00 0.00 0.00 78 1018.5
20210725015048 68 267 1.0 2.0 0.00 0.00 0.00 78 1018.6
20210725014259 68 257 0.0 1.0 0.00 0.00 0.00 77 1018.5
20210725013057 68 248 0.0 0.0 0.00 0.00 0.00 76 1018.4
20210725012049 69 245 0.0 0.0 0.00 0.00 0.00 75 1018.4
20210725011259 69 226 0.0 0.0 0.00 0.00 0.00 73 1018.3
20210725010056 69 208 0.0 0.0 0.00 0.00 0.00 72 1018.3
20210725005049 70 210 0.0 1.0 0.00 0.00 0.00 70 1018.2
20210725004258 71 249 0.0 0.0 0.00 0.00 0.00 69 1018.1
20210725003055 71 227 1.0 3.0 0.00 0.00 0.00 67 1018.0
20210725002053 71 191 0.0 1.0 0.00 0.00 0.00 66 1018.0
20210725001258 72 145 0.0 0.0 0.00 0.00 0.00 65 1018.1